Time;durP1;ratioP1;P1;durP2;ratioP2;P2;SDS_P1;SDS_P2;PMS_P1;PMS_P2;Temp;Humidity;BMP_temperature;BMP_pressure;BME280_temperature;BME280_humidity;BME280_pressure;Samples;Min_cycle;Max_cycle;Signal;HPM_P1;HPM_P2
2022/12/01 00:02:05;;;;;;;67.72;37.88;;;6.20;99.90;;;;;;4974843;28;20530;-67
2022/12/01 00:04:31;;;;;;;67.32;38.72;;;6.20;99.90;;;;;;4997008;28;20117;-67
2022/12/01 00:06:57;;;;;;;68.65;40.17;;;6.20;99.90;;;;;;4996674;28;20053;-67
2022/12/01 00:12:06;;;;;;;68.13;36.78;;;6.20;99.90;;;;;;4989665;28;20129;-66
2022/12/01 00:14:32;;;;;;;68.30;38.25;;;6.20;99.90;;;;;;4996846;28;20176;-67
2022/12/01 00:16:57;;;;;;;67.07;37.80;;;6.30;99.90;;;;;;4996363;28;20045;-66
2022/12/01 00:19:24;;;;;;;64.47;37.78;;;6.20;99.90;;;;;;4996912;28;20115;-67
2022/12/01 00:21:50;;;;;;;72.93;39.05;;;6.20;99.90;;;;;;4989975;28;20052;-67
2022/12/01 00:24:16;;;;;;;67.95;37.83;;;6.20;99.90;;;;;;5012511;28;20037;-68
2022/12/01 00:26:41;;;;;;;67.90;31.48;;;6.20;99.90;;;;;;4996678;28;20377;-67
2022/12/01 00:29:07;;;;;;;73.28;39.33;;;6.20;99.90;;;;;;4996306;28;20042;-68
2022/12/01 00:31:36;;;;;;;70.30;39.83;;;6.10;99.90;;;;;;4992310;28;20054;-66
2022/12/01 00:34:01;;;;;;;68.40;40.13;;;6.10;99.90;;;;;;5008481;28;20046;-66
2022/12/01 00:36:27;;;;;;;71.93;40.40;;;6.20;99.90;;;;;;4996272;28;20052;-67
2022/12/01 00:38:54;;;;;;;67.72;37.53;;;6.20;99.90;;;;;;5013795;28;20457;-67
2022/12/01 00:41:20;;;;;;;69.82;38.88;;;6.20;99.90;;;;;;4993657;28;20453;-67
2022/12/01 00:43:45;;;;;;;72.82;38.80;;;6.20;99.90;;;;;;4987369;28;20096;-67
2022/12/01 00:46:17;;;;;;;70.10;38.50;;;6.20;99.90;;;;;;5013658;28;20050;-66
2022/12/01 00:48:46;;;;;;;68.25;38.90;;;6.10;99.90;;;;;;5014144;28;20073;-65
2022/12/01 00:51:12;;;;;;;69.75;39.47;;;6.20;99.90;;;;;;5012509;28;20041;-65
2022/12/01 00:53:37;;;;;;;69.82;38.65;;;6.10;99.90;;;;;;5001241;28;20077;-66
2022/12/01 00:56:03;;;;;;;67.78;37.47;;;6.20;99.90;;;;;;5013009;28;20057;-66
2022/12/01 00:58:29;;;;;;;70.45;39.28;;;6.20;99.90;;;;;;5013272;28;20052;-65
2022/12/01 01:00:59;;;;;;;67.93;38.65;;;6.20;99.90;;;;;;5013043;28;20300;-65
2022/12/01 01:03:25;;;;;;;70.25;39.22;;;6.20;99.90;;;;;;5008728;28;20073;-65
2022/12/01 01:06:02;;;;;;;68.53;39.67;;;6.20;99.90;;;;;;5013310;28;20414;-65
2022/12/01 01:08:27;;;;;;;69.60;38.78;;;6.20;99.90;;;;;;5013424;28;20125;-65
2022/12/01 01:10:53;;;;;;;67.30;38.72;;;6.20;99.90;;;;;;4968562;28;20140;-65
2022/12/01 01:13:20;;;;;;;72.03;40.30;;;6.20;99.90;;;;;;5007006;28;20481;-65
2022/12/01 01:16:00;;;;;;;70.88;38.85;;;6.30;99.90;;;;;;5013133;28;20482;-65
2022/12/01 01:18:26;;;;;;;65.40;39.17;;;6.20;99.90;;;;;;5013037;28;20034;-65
2022/12/01 01:21:01;;;;;;;67.35;38.78;;;6.20;99.90;;;;;;4991039;28;20038;-66
2022/12/01 01:23:26;;;;;;;;;;;6.20;99.90;;;;;;5004971;28;20056;-65
2022/12/01 01:25:52;;;;;;;63.70;36.78;;;6.20;99.90;;;;;;5012857;28;20353;-65
2022/12/01 01:28:18;;;;;;;67.97;38.50;;;6.20;99.90;;;;;;5013118;28;20323;-65
2022/12/01 01:30:45;;;;;;;72.90;39.85;;;6.20;99.90;;;;;;4993610;28;20041;-66
2022/12/01 01:33:11;;;;;;;71.88;39.45;;;6.30;99.90;;;;;;4975673;28;20089;-66
2022/12/01 01:35:36;;;;;;;66.53;37.70;;;6.20;99.90;;;;;;4988937;28;20545;-65
2022/12/01 01:38:02;;;;;;;67.93;39.60;;;6.20;99.90;;;;;;4993498;28;20053;-65
2022/12/01 01:40:27;;;;;;;70.65;39.25;;;6.20;99.90;;;;;;5004171;28;20042;-65
2022/12/01 01:42:53;;;;;;;67.00;36.85;;;6.20;99.90;;;;;;5001453;28;20362;-66
2022/12/01 01:45:24;;;;;;;66.88;37.88;;;6.30;99.90;;;;;;5003747;28;20038;-67
2022/12/01 01:47:52;;;;;;;63.67;37.05;;;6.30;99.90;;;;;;4995027;28;20042;-64
2022/12/01 01:50:22;;;;;;;69.28;38.50;;;6.20;99.90;;;;;;5012628;28;20472;-65
2022/12/01 01:52:53;;;;;;;66.55;37.33;;;6.20;99.90;;;;;;4981380;28;20065;-65
2022/12/01 01:55:19;;;;;;;66.50;36.67;;;6.20;99.90;;;;;;5000686;28;20129;-65
2022/12/01 01:57:45;;;;;;;64.68;37.47;;;6.30;99.90;;;;;;5012464;28;20129;-66
2022/12/01 02:00:15;;;;;;;59.97;29.33;;;6.20;99.90;;;;;;5011780;28;20034;-66
2022/12/01 02:02:45;;;;;;;62.78;37.05;;;6.30;99.90;;;;;;4990790;28;20073;-65
2022/12/01 02:05:22;;;;;;;66.07;37.47;;;6.30;99.90;;;;;;5013111;28;20314;-65
2022/12/01 02:07:49;;;;;;;63.42;37.33;;;6.20;99.90;;;;;;5011828;28;20482;-65
2022/12/01 02:10:21;;;;;;;63.38;38.30;;;6.20;99.90;;;;;;5012005;28;20207;-66
2022/12/01 02:12:55;;;;;;;67.82;37.92;;;6.20;99.90;;;;;;5007051;28;20037;-66
2022/12/01 02:15:34;;;;;;;64.10;37.92;;;6.20;99.90;;;;;;5012545;28;20042;-66
2022/12/01 02:18:27;;;;;;;68.93;37.90;;;6.20;99.90;;;;;;4997724;28;20435;-67
2022/12/01 02:21:06;;;;;;;63.30;37.05;;;6.20;99.90;;;;;;5010410;28;20160;-66
2022/12/01 02:23:50;;;;;;;65.28;38.10;;;6.20;99.90;;;;;;5005079;28;20399;-67
2022/12/01 02:26:34;;;;;;;65.60;27.65;;;6.20;99.90;;;;;;5005706;28;20046;-67
2022/12/01 02:29:32;;;;;;;62.47;37.10;;;6.20;99.90;;;;;;5007272;28;20038;-67
2022/12/01 02:32:16;;;;;;;64.63;36.67;;;6.20;99.90;;;;;;4980025;28;20061;-67
2022/12/01 02:34:50;;;;;;;66.82;38.97;;;6.20;99.90;;;;;;4984922;28;20041;-67
2022/12/01 02:37:52;;;;;;;64.93;36.67;;;6.20;99.90;;;;;;5011990;28;20053;-66
2022/12/01 02:40:25;;;;;;;63.00;35.63;;;6.20;99.90;;;;;;4981254;28;20038;-67
2022/12/01 02:43:03;;;;;;;68.28;37.72;;;6.20;99.90;;;;;;4998716;28;20042;-65
2022/12/01 02:45:38;;;;;;;65.10;38.05;;;6.20;99.90;;;;;;4969323;28;20112;-66
2022/12/01 02:48:09;;;;;;;59.95;36.38;;;6.20;99.90;;;;;;5011770;28;20129;-65
2022/12/01 02:50:37;;;;;;;69.53;38.45;;;6.30;99.90;;;;;;4994952;28;20100;-66
2022/12/01 02:53:05;;;;;;;66.60;36.38;;;6.20;99.90;;;;;;4999251;28;20827;-67
2022/12/01 02:55:31;;;;;;;67.20;37.47;;;6.20;99.90;;;;;;5012252;28;20095;-67
2022/12/01 02:57:56;;;;;;;69.55;38.55;;;6.20;99.90;;;;;;5011807;28;20128;-66
2022/12/01 03:00:22;;;;;;;64.47;37.22;;;6.20;99.90;;;;;;5007454;28;20065;-66
2022/12/01 03:03:26;;;;;;;63.90;37.75;;;6.20;99.90;;;;;;4990853;28;20764;-67
2022/12/01 03:06:01;;;;;;;62.38;37.10;;;6.20;99.90;;;;;;4998750;28;20053;-66
2022/12/01 03:08:51;;;;;;;64.30;38.45;;;6.20;99.90;;;;;;5011735;28;20038;-67
2022/12/01 03:11:28;;;;;;;63.45;27.17;;;6.20;99.90;;;;;;4990043;28;20037;-67
2022/12/01 03:14:00;;;;;;;69.20;38.67;;;6.20;99.90;;;;;;5005161;28;20165;-66
2022/12/01 03:16:57;;;;;;;64.05;38.55;;;6.20;99.90;;;;;;5011567;28;20045;-67
2022/12/01 03:19:37;;;;;;;63.30;37.80;;;6.20;99.90;;;;;;4995876;28;20050;-67
2022/12/01 03:22:24;;;;;;;63.20;37.65;;;6.20;99.90;;;;;;4990998;28;20038;-67
2022/12/01 03:24:53;;;;;;;66.70;38.83;;;6.20;99.90;;;;;;4975977;28;20403;-67
2022/12/01 03:27:23;;;;;;;65.28;37.42;;;6.20;99.90;;;;;;4981130;28;20049;-66
2022/12/01 03:29:52;;;;;;;62.88;37.10;;;6.10;99.90;;;;;;5014379;28;20522;-67
2022/12/01 03:32:32;;;;;;;61.70;36.92;;;6.10;99.90;;;;;;4988692;28;20046;-66
2022/12/01 03:35:04;;;;;;;62.92;39.05;;;6.10;99.90;;;;;;4997379;28;20095;-67
2022/12/01 03:37:44;;;;;;;60.53;36.97;;;6.10;99.90;;;;;;4997116;28;20050;-67
2022/12/01 03:40:16;;;;;;;63.45;38.88;;;6.10;99.90;;;;;;4997022;28;20095;-67
2022/12/01 03:42:56;;;;;;;62.78;37.65;;;6.10;99.90;;;;;;4987091;28;20104;-67
2022/12/01 03:46:02;;;;;;;62.58;37.60;;;6.20;99.90;;;;;;4997508;28;20045;-67
2022/12/01 03:48:28;;;;;;;;;;;6.10;99.90;;;;;;4957020;28;20045;-67
2022/12/01 03:51:20;;;;;;;64.75;38.95;;;6.10;99.90;;;;;;5014617;28;19971;-67
2022/12/01 03:53:53;;;;;;;61.35;38.63;;;6.10;99.90;;;;;;4994512;28;20424;-67
2022/12/01 03:56:22;;;;;;;64.22;37.67;;;6.00;99.90;;;;;;4993296;28;20042;-67
2022/12/01 03:58:50;;;;;;;58.15;36.53;;;6.10;99.90;;;;;;5014829;28;20073;-67
2022/12/01 04:01:18;;;;;;;55.95;36.20;;;6.10;99.90;;;;;;4980516;28;20121;-67
2022/12/01 04:03:46;;;;;;;65.82;39.00;;;6.10;99.90;;;;;;4990393;28;20069;-66
2022/12/01 04:06:12;;;;;;;60.03;36.53;;;6.10;99.90;;;;;;4986893;28;20100;-66
2022/12/01 04:08:40;;;;;;;65.40;39.17;;;6.10;99.90;;;;;;4983343;28;20049;-66
2022/12/01 04:12:28;;;;;;;60.17;38.40;;;6.10;99.90;;;;;;5014242;28;20034;-66
2022/12/01 04:13:51;;;;;;;58.13;37.95;;;6.00;99.90;;;;;;5010376;28;20254;-66
2022/12/01 04:16:16;;;;;;;60.97;38.97;;;5.90;99.90;;;;;;5014109;28;20109;-67
2022/12/01 04:18:42;;;;;;;63.00;38.42;;;5.90;99.90;;;;;;5013989;28;20104;-66
2022/12/01 04:21:08;;;;;;;60.33;36.65;;;5.90;99.90;;;;;;5014080;28;20038;-66
2022/12/01 04:26:17;;;;;;;56.53;36.13;;;5.90;99.90;;;;;;4990108;28;20042;-66
2022/12/01 04:28:43;;;;;;;60.10;38.13;;;5.90;99.90;;;;;;4989455;28;20291;-68
2022/12/01 04:31:10;;;;;;;63.03;40.15;;;5.90;99.90;;;;;;4979956;28;20070;-66
2022/12/01 04:33:35;;;;;;;61.83;38.08;;;6.00;99.90;;;;;;4988618;28;20050;-66
2022/12/01 04:36:02;;;;;;;63.95;38.42;;;6.00;99.90;;;;;;5013945;28;20048;-65
2022/12/01 04:38:28;;;;;;;57.90;38.20;;;5.90;99.90;;;;;;5004909;28;20066;-67
2022/12/01 04:40:54;;;;;;;59.28;38.00;;;5.90;99.90;;;;;;4990807;28;20069;-67
2022/12/01 04:43:22;;;;;;;60.47;38.20;;;5.80;99.90;;;;;;5004506;28;20091;-67
2022/12/01 04:45:48;;;;;;;60.58;38.63;;;5.90;99.90;;;;;;5014097;28;20038;-67
2022/12/01 04:48:14;;;;;;;63.70;38.50;;;5.90;99.90;;;;;;4996686;28;20489;-66
2022/12/01 04:50:40;;;;;;;58.63;37.63;;;5.80;99.90;;;;;;5013753;28;20382;-67
2022/12/01 04:53:05;;;;;;;59.03;38.50;;;5.80;99.90;;;;;;5002384;28;20124;-67
2022/12/01 04:55:35;;;;;;;59.33;37.55;;;5.80;99.90;;;;;;4986947;28;20336;-67
2022/12/01 04:58:03;;;;;;;63.25;38.90;;;5.70;99.90;;;;;;4992023;28;20034;-67
2022/12/01 05:00:30;;;;;;;60.08;38.75;;;5.80;99.90;;;;;;4991994;28;20034;-66
2022/12/01 05:02:55;;;;;;;60.72;39.65;;;5.80;99.90;;;;;;4993300;28;20038;-67
2022/12/01 05:05:22;;;;;;;57.72;38.25;;;5.80;99.90;;;;;;4995982;28;20512;-66
2022/12/01 05:07:47;;;;;;;59.70;38.58;;;5.80;99.90;;;;;;4996038;28;20164;-67
2022/12/01 05:10:13;;;;;;;61.35;29.80;;;5.80;99.90;;;;;;5013498;28;20060;-66
2022/12/01 05:12:40;;;;;;;60.05;37.33;;;5.80;99.90;;;;;;5008915;28;20152;-66
2022/12/01 05:15:07;;;;;;;62.63;39.78;;;5.80;99.90;;;;;;4996438;28;20049;-66
2022/12/01 05:17:32;;;;;;;61.90;37.70;;;5.80;99.90;;;;;;5014432;28;20064;-66
2022/12/01 05:22:42;;;;;;;59.22;38.47;;;5.90;99.90;;;;;;4976548;28;20046;-66
2022/12/01 05:25:07;;;;;;;61.35;38.88;;;5.80;99.90;;;;;;4987092;28;20174;-66
2022/12/01 05:27:33;;;;;;;61.17;39.78;;;5.90;99.90;;;;;;5013108;28;20338;-67
2022/12/01 05:29:58;;;;;;;62.53;38.92;;;5.80;99.90;;;;;;4995085;28;20037;-67
2022/12/01 05:32:24;;;;;;;63.38;39.03;;;5.80;99.90;;;;;;4987624;28;20073;-67
2022/12/01 05:34:49;;;;;;;63.40;38.05;;;5.80;99.90;;;;;;4979107;28;20042;-68
2022/12/01 05:37:15;;;;;;;52.05;27.95;;;5.80;99.90;;;;;;5012767;28;20049;-66
2022/12/01 05:39:41;;;;;;;64.50;39.78;;;5.70;99.90;;;;;;5012213;28;20045;-66
2022/12/01 05:42:06;;;;;;;63.05;38.22;;;5.80;99.90;;;;;;4988328;28;20522;-67
2022/12/01 05:44:32;;;;;;;67.43;40.05;;;5.80;99.90;;;;;;4992397;28;20042;-67
2022/12/01 05:46:57;;;;;;;61.88;37.78;;;5.70;99.90;;;;;;4995108;28;20046;-67
2022/12/01 05:49:23;;;;;;;63.85;38.60;;;5.70;99.90;;;;;;4995118;28;20077;-67
2022/12/01 05:51:48;;;;;;;57.85;36.38;;;5.70;99.90;;;;;;5008618;28;20061;-68
2022/12/01 05:54:15;;;;;;;58.53;37.97;;;5.80;99.90;;;;;;4988631;28;20058;-67
2022/12/01 05:56:40;;;;;;;63.90;39.85;;;5.80;99.90;;;;;;4977431;28;20045;-67
2022/12/01 05:59:06;;;;;;;59.42;36.80;;;5.70;99.90;;;;;;4966257;28;20031;-67
2022/12/01 06:01:33;;;;;;;62.75;39.67;;;5.80;99.90;;;;;;4976008;28;20415;-67
2022/12/01 06:03:58;;;;;;;58.60;28.55;;;5.80;99.90;;;;;;4973423;28;20043;-69
2022/12/01 06:06:24;;;;;;;64.38;39.15;;;5.70;99.90;;;;;;4974528;28;20106;-69
2022/12/01 06:08:50;;;;;;;65.18;39.22;;;5.80;99.90;;;;;;4975415;28;20034;-67
2022/12/01 06:11:15;;;;;;;58.63;37.33;;;5.80;99.90;;;;;;4959467;28;20035;-67
2022/12/01 06:13:41;;;;;;;61.72;38.33;;;5.90;99.90;;;;;;4979655;28;20042;-67
2022/12/01 06:16:07;;;;;;;57.53;36.55;;;5.90;99.90;;;;;;4969314;28;20047;-67
2022/12/01 06:18:35;;;;;;;62.42;38.03;;;5.90;99.90;;;;;;4985751;28;20078;-66
2022/12/01 06:21:01;;;;;;;62.72;38.22;;;5.90;99.90;;;;;;4947130;28;20073;-66
2022/12/01 06:23:26;;;;;;;59.90;38.30;;;5.90;99.90;;;;;;4992245;28;20042;-66
2022/12/01 06:25:52;;;;;;;62.05;38.78;;;5.90;99.90;;;;;;4975123;28;20049;-67
2022/12/01 06:28:18;;;;;;;58.80;38.08;;;6.00;99.90;;;;;;4975135;28;20109;-67
2022/12/01 06:30:44;;;;;;;63.08;38.58;;;6.00;99.90;;;;;;4973260;28;20057;-67
2022/12/01 06:33:09;;;;;;;63.78;39.08;;;6.00;99.90;;;;;;4963057;28;20039;-67
2022/12/01 06:35:36;;;;;;;61.03;38.58;;;6.00;99.90;;;;;;4968191;28;20200;-67
2022/12/01 06:38:01;;;;;;;64.85;39.25;;;6.00;99.90;;;;;;4980541;28;20030;-67
2022/12/01 06:40:27;;;;;;;66.35;40.28;;;6.00;99.90;;;;;;4974673;28;20133;-66
2022/12/01 06:43:00;;;;;;;68.85;41.45;;;6.00;99.90;;;;;;4974909;28;20137;-67
2022/12/01 06:45:25;;;;;;;63.10;39.25;;;6.00;99.90;;;;;;4965253;28;20097;-67
2022/12/01 06:47:55;;;;;;;63.75;39.50;;;6.00;99.90;;;;;;4955924;28;20396;-67
2022/12/01 06:50:20;;;;;;;62.45;38.00;;;5.90;99.90;;;;;;4975121;28;20093;-68
2022/12/01 06:52:46;;;;;;;63.72;39.35;;;6.00;99.90;;;;;;4976550;28;20129;-67
2022/12/01 06:55:13;;;;;;;61.50;38.50;;;6.00;99.90;;;;;;4981296;28;20552;-67
2022/12/01 06:57:38;;;;;;;64.28;39.88;;;6.00;99.90;;;;;;4958628;28;20043;-67
2022/12/01 07:00:05;;;;;;;64.80;40.65;;;6.00;99.90;;;;;;4962176;28;20096;-67
2022/12/01 07:02:31;;;;;;;62.15;37.20;;;5.90;99.90;;;;;;4960447;28;20053;-68
2022/12/01 07:04:57;;;;;;;65.45;39.63;;;6.00;99.90;;;;;;4959431;28;20031;-67
2022/12/01 07:07:23;;;;;;;66.80;38.92;;;5.90;99.90;;;;;;4977521;28;20172;-68
2022/12/01 07:09:48;;;;;;;65.32;39.63;;;6.00;99.90;;;;;;4995585;28;20050;-66
2022/12/01 07:12:15;;;;;;;61.72;39.03;;;6.00;99.90;;;;;;4995174;28;20345;-68
2022/12/01 07:14:41;;;;;;;65.88;29.65;;;6.00;99.90;;;;;;4978913;28;20388;-67
2022/12/01 07:17:08;;;;;;;65.47;40.75;;;5.90;99.90;;;;;;4977989;28;20054;-66
2022/12/01 07:19:34;;;;;;;61.88;38.30;;;5.90;99.90;;;;;;4994820;28;20140;-67
2022/12/01 07:22:00;;;;;;;66.70;38.72;;;5.80;99.90;;;;;;4995440;28;20117;-67
2022/12/01 07:24:28;;;;;;;69.47;39.10;;;5.70;99.90;;;;;;4995444;28;20363;-67
2022/12/01 07:26:54;;;;;;;66.30;39.30;;;5.70;99.90;;;;;;4995361;28;20097;-68
2022/12/01 07:29:19;;;;;;;68.85;38.42;;;5.60;99.90;;;;;;4977569;28;20038;-68
2022/12/01 07:31:45;;;;;;;64.15;40.92;;;5.60;99.90;;;;;;4977025;28;20425;-67
2022/12/01 07:34:14;;;;;;;70.43;40.95;;;5.50;99.90;;;;;;4995384;28;20042;-67
2022/12/01 07:36:40;;;;;;;61.67;39.70;;;5.40;99.90;;;;;;4995237;28;20054;-67
2022/12/01 07:39:07;;;;;;;61.70;38.20;;;5.40;99.90;;;;;;4977063;28;20353;-67
2022/12/01 07:41:33;;;;;;;65.60;39.35;;;5.40;99.90;;;;;;4994811;28;20050;-68
2022/12/01 07:43:59;;;;;;;68.30;40.97;;;5.40;99.90;;;;;;4977369;28;20076;-67
2022/12/01 07:46:27;;;;;;;67.13;40.60;;;5.30;99.90;;;;;;4995112;28;20070;-66
2022/12/01 07:48:54;;;;;;;65.53;40.25;;;5.30;99.90;;;;;;4977818;28;20465;-68
2022/12/01 07:51:21;;;;;;;72.70;42.03;;;5.20;99.90;;;;;;4994927;28;20045;-67
2022/12/01 07:53:51;;;;;;;70.00;42.17;;;5.20;99.90;;;;;;4977567;28;20050;-68
2022/12/01 07:56:17;;;;;;;73.80;43.50;;;5.20;99.90;;;;;;4977692;28;20168;-67
2022/12/01 07:58:43;;;;;;;75.28;43.50;;;5.10;99.90;;;;;;4960699;28;20054;-68
2022/12/01 08:01:11;;;;;;;74.28;41.45;;;5.10;99.90;;;;;;4981945;28;20477;-67
2022/12/01 08:03:37;;;;;;;70.75;42.75;;;5.00;99.90;;;;;;4994667;28;20034;-67
2022/12/01 08:06:04;;;;;;;76.22;42.00;;;5.00;99.90;;;;;;5014111;28;20053;-67
2022/12/01 08:08:33;;;;;;;67.60;30.48;;;5.00;99.90;;;;;;4983427;28;20483;-66
2022/12/01 08:11:05;;;;;;;71.95;41.50;;;5.00;99.90;;;;;;5014172;28;20049;-68
2022/12/01 08:13:31;;;;;;;71.47;42.97;;;5.00;99.90;;;;;;5009944;28;20046;-67
2022/12/01 08:15:56;;;;;;;72.57;41.47;;;5.00;99.90;;;;;;4996992;28;20045;-66
2022/12/01 08:18:35;;;;;;;69.15;41.20;;;5.00;99.90;;;;;;5013729;28;20042;-66
2022/12/01 08:21:02;;;;;;;68.35;40.28;;;5.10;99.90;;;;;;5013919;28;20106;-67
2022/12/01 08:23:27;;;;;;;67.85;30.75;;;5.20;99.90;;;;;;4992291;28;20065;-67
2022/12/01 08:26:03;;;;;;;68.75;41.28;;;5.20;99.90;;;;;;4982824;28;20422;-67
2022/12/01 08:28:29;;;;;;;76.63;43.15;;;5.10;99.90;;;;;;5014132;28;20041;-67
2022/12/01 08:30:55;;;;;;;73.75;42.55;;;5.20;99.90;;;;;;5013325;28;20048;-68
2022/12/01 08:33:21;;;;;;;71.22;41.40;;;5.30;99.90;;;;;;4985248;28;20042;-67
2022/12/01 08:35:49;;;;;;;73.72;42.20;;;5.30;99.90;;;;;;4959460;28;20360;-66
2022/12/01 08:38:15;;;;;;;74.43;43.17;;;5.30;99.90;;;;;;4991617;28;20034;-68
2022/12/01 08:40:41;;;;;;;68.55;42.53;;;5.30;99.90;;;;;;4976386;28;20341;-67
2022/12/01 08:43:06;;;;;;;71.47;43.58;;;5.40;99.90;;;;;;4976489;28;20057;-67
2022/12/01 08:45:32;;;;;;;71.35;42.53;;;5.50;99.90;;;;;;4976647;28;20049;-68
2022/12/01 08:47:58;;;;;;;73.32;41.70;;;5.50;99.90;;;;;;4976881;28;20039;-67
2022/12/01 08:50:27;;;;;;;68.90;41.63;;;5.60;99.90;;;;;;4976619;28;20069;-68
2022/12/01 08:52:53;;;;;;;72.07;43.13;;;5.60;99.90;;;;;;4975849;28;20062;-69
2022/12/01 08:55:20;;;;;;;70.70;42.55;;;5.60;99.90;;;;;;4993811;28;20340;-68
2022/12/01 08:57:46;;;;;;;76.95;43.70;;;5.60;99.90;;;;;;4976379;28;20454;-68
2022/12/01 09:00:12;;;;;;;73.00;42.35;;;5.60;99.90;;;;;;4995141;28;20126;-68
2022/12/01 09:02:38;;;;;;;77.85;43.47;;;5.50;99.90;;;;;;4979990;28;20057;-67
2022/12/01 09:05:04;;;;;;;70.55;33.05;;;5.40;99.90;;;;;;4970676;28;20454;-68
2022/12/01 09:07:29;;;;;;;72.70;42.88;;;5.40;99.90;;;;;;4996032;28;20053;-69
2022/12/01 09:09:55;;;;;;;77.00;45.17;;;5.30;99.90;;;;;;4995975;28;20418;-68
2022/12/01 09:12:21;;;;;;;73.22;43.10;;;5.30;99.90;;;;;;4989712;28;20467;-68
2022/12/01 09:14:49;;;;;;;71.47;41.97;;;5.20;99.90;;;;;;5003578;28;20041;-67
2022/12/01 09:17:16;;;;;;;74.15;43.75;;;5.30;99.90;;;;;;4995485;28;20046;-67
2022/12/01 09:19:42;;;;;;;80.32;43.97;;;5.30;99.90;;;;;;4995132;28;20034;-67
2022/12/01 09:22:09;;;;;;;75.65;43.45;;;5.30;99.90;;;;;;4991299;28;20042;-68
2022/12/01 09:24:34;;;;;;;66.80;42.10;;;5.30;99.90;;;;;;4989179;28;20090;-68
2022/12/01 09:27:02;;;;;;;70.47;44.85;;;5.30;99.90;;;;;;4988080;28;20342;-67
2022/12/01 09:29:28;;;;;;;72.00;42.88;;;5.40;99.90;;;;;;4995100;28;20120;-65
2022/12/01 09:31:58;;;;;;;70.40;42.28;;;5.50;99.90;;;;;;4992810;28;20510;-65
2022/12/01 09:34:24;;;;;;;73.25;43.30;;;5.60;99.90;;;;;;5010228;28;20153;-64
2022/12/01 09:36:54;;;;;;;69.20;41.78;;;5.50;99.90;;;;;;5012193;28;20048;-64
2022/12/01 09:39:19;;;;;;;71.15;42.38;;;5.50;99.90;;;;;;5012299;28;20048;-64
2022/12/01 09:41:56;;;;;;;64.75;29.15;;;5.50;99.90;;;;;;5011502;28;20045;-65
2022/12/01 09:44:43;;;;;;;66.70;40.35;;;5.50;99.90;;;;;;4984927;28;20145;-64
2022/12/01 09:47:23;;;;;;;81.85;40.03;;;5.40;99.90;;;;;;4992806;28;20085;-65
2022/12/01 09:49:56;;;;;;;61.25;29.75;;;5.40;99.90;;;;;;4993552;28;20042;-65
2022/12/01 09:52:25;;;;;;;69.15;41.35;;;5.20;99.90;;;;;;5006282;28;20077;-63
2022/12/01 09:54:53;;;;;;;71.75;41.42;;;5.30;99.90;;;;;;5010388;28;20038;-64
2022/12/01 09:57:32;;;;;;;71.43;41.58;;;5.30;99.90;;;;;;5012557;28;20075;-64
2022/12/01 10:00:01;;;;;;;63.25;40.30;;;5.30;99.90;;;;;;4994832;28;20030;-63
2022/12/01 10:02:35;;;;;;;63.58;39.08;;;5.40;99.90;;;;;;5006160;28;20117;-62
2022/12/01 10:05:05;;;;;;;63.15;29.80;;;5.40;99.90;;;;;;4988493;28;20041;-63
2022/12/01 10:07:47;;;;;;;64.72;40.78;;;5.40;99.90;;;;;;5012620;28;20121;-64
2022/12/01 10:10:33;;;;;;;57.75;37.42;;;5.40;99.90;;;;;;4994695;28;20060;-63
2022/12/01 10:12:59;;;;;;;61.47;38.80;;;5.50;99.90;;;;;;4992778;28;20482;-65
2022/12/01 10:15:46;;;;;;;63.42;40.47;;;5.60;99.90;;;;;;4994620;28;20092;-63
2022/12/01 10:18:29;;;;;;;63.58;41.40;;;5.60;99.90;;;;;;5002423;28;20486;-64
2022/12/01 10:21:24;;;;;;;61.28;38.10;;;5.60;99.90;;;;;;4978065;28;20109;-63
2022/12/01 10:24:08;;;;;;;58.92;37.05;;;5.80;99.90;;;;;;4978109;28;20134;-64
2022/12/01 10:26:54;;;;;;;55.05;37.40;;;5.80;99.90;;;;;;4992451;28;20046;-65
2022/12/01 10:29:46;;;;;;;57.78;37.28;;;6.00;99.90;;;;;;4992237;28;20074;-66
2022/12/01 10:32:19;;;;;;;56.42;37.13;;;6.10;99.90;;;;;;4992473;28;20056;-66
2022/12/01 10:34:46;;;;;;;64.40;38.45;;;6.10;99.90;;;;;;4974465;28;20050;-67
2022/12/01 10:37:20;;;;;;;60.65;28.33;;;6.10;99.90;;;;;;4985493;28;20050;-67
2022/12/01 10:39:50;;;;;;;60.95;37.97;;;6.00;99.90;;;;;;4992087;28;20049;-67
2022/12/01 10:42:29;;;;;;;63.67;38.42;;;6.10;99.90;;;;;;4974802;28;20042;-67
2022/12/01 10:44:59;;;;;;;71.68;41.90;;;6.00;99.90;;;;;;4972310;28;20350;-67
2022/12/01 10:47:27;;;;;;;63.13;39.03;;;6.00;99.90;;;;;;4992085;28;20045;-66
2022/12/01 10:49:53;;;;;;;68.60;30.13;;;6.00;99.90;;;;;;4974287;28;20493;-67
2022/12/01 10:52:39;;;;;;;63.30;39.33;;;6.10;99.90;;;;;;4991670;28;20054;-67
2022/12/01 10:55:26;;;;;;;61.05;39.38;;;6.20;99.90;;;;;;4992118;28;20100;-66
2022/12/01 10:57:58;;;;;;;62.30;38.25;;;6.20;99.90;;;;;;4991722;28;20498;-66
2022/12/01 11:00:33;;;;;;;60.55;37.83;;;6.30;99.90;;;;;;4962108;28;20050;-67
2022/12/01 11:02:59;;;;;;;57.55;36.40;;;6.30;99.90;;;;;;4984342;28;20049;-65
2022/12/01 11:05:30;;;;;;;60.85;38.67;;;6.30;99.90;;;;;;5008876;28;20450;-66
2022/12/01 11:07:57;;;;;;;59.65;36.95;;;6.30;99.90;;;;;;5011829;28;20103;-65
2022/12/01 11:10:29;;;;;;;59.05;36.70;;;6.40;99.90;;;;;;4980445;28;20043;-66
2022/12/01 11:12:57;;;;;;;56.67;36.15;;;6.40;99.90;;;;;;4992539;28;20776;-65
2022/12/01 11:15:31;;;;;;;60.38;39.60;;;6.40;99.90;;;;;;4994193;28;20343;-66
2022/12/01 11:18:03;;;;;;;56.90;37.20;;;6.50;99.90;;;;;;5011573;28;20092;-66
2022/12/01 11:20:35;;;;;;;54.10;35.15;;;6.50;99.90;;;;;;5010813;28;20042;-67
2022/12/01 11:23:20;;;;;;;50.72;34.70;;;6.60;99.90;;;;;;5008519;28;20062;-67
2022/12/01 11:26:16;;;;;;;49.95;33.03;;;6.60;99.90;;;;;;4993830;28;20478;-68
2022/12/01 11:29:06;;;;;;;50.50;32.85;;;6.70;99.90;;;;;;4994150;28;20281;-68
2022/12/01 11:31:51;;;;;;;50.33;34.58;;;6.80;99.90;;;;;;4993853;28;20071;-66
2022/12/01 11:34:30;;;;;;;48.53;32.22;;;6.90;99.90;;;;;;5007798;28;20042;-67
2022/12/01 11:36:59;;;;;;;50.63;34.28;;;6.90;99.90;;;;;;4983425;28;20035;-67
2022/12/01 11:39:38;;;;;;;51.38;33.95;;;6.90;99.90;;;;;;5007537;28;20323;-66
2022/12/01 11:42:15;;;;;;;48.60;31.70;;;6.90;99.90;;;;;;4994685;28;20050;-67
2022/12/01 11:44:56;;;;;;;48.28;32.10;;;6.90;99.90;;;;;;4991034;28;20451;-66
2022/12/01 11:47:24;;;;;;;43.08;30.73;;;7.00;99.90;;;;;;5003348;28;20050;-66
2022/12/01 11:50:24;;;;;;;46.25;32.75;;;6.90;99.90;;;;;;4981127;28;20042;-67
2022/12/01 11:52:50;;;;;;;41.40;29.02;;;7.00;99.90;;;;;;4992105;28;20257;-66
2022/12/01 11:55:15;;;;;;;43.20;30.02;;;7.00;99.90;;;;;;4995302;28;20122;-66
2022/12/01 11:57:47;;;;;;;38.35;27.17;;;7.10;99.90;;;;;;4993777;28;20085;-67
2022/12/01 12:00:19;;;;;;;41.88;28.75;;;7.20;99.90;;;;;;4979063;28;20053;-66
2022/12/01 12:03:12;;;;;;;42.20;29.80;;;7.30;99.90;;;;;;4999875;28;20125;-65
2022/12/01 12:05:41;;;;;;;41.25;28.10;;;7.30;99.90;;;;;;4995274;28;20046;-66
2022/12/01 12:08:38;;;;;;;39.38;28.58;;;7.30;99.90;;;;;;4994585;28;20061;-65
2022/12/01 12:11:18;;;;;;;41.40;20.48;;;7.30;99.90;;;;;;4994419;28;20035;-66
2022/12/01 12:14:05;;;;;;;34.92;25.05;;;7.30;99.90;;;;;;4973518;28;20632;-66
2022/12/01 12:16:42;;;;;;;35.65;26.00;;;7.30;99.90;;;;;;5002802;28;20041;-67
2022/12/01 12:19:27;;;;;;;38.15;21.42;;;7.20;99.90;;;;;;4994534;28;20038;-66
2022/12/01 12:22:14;;;;;;;36.67;25.90;;;7.20;99.90;;;;;;4994569;28;20053;-65
2022/12/01 12:25:09;;;;;;;36.05;26.42;;;7.20;99.90;;;;;;4988281;28;20046;-65
2022/12/01 12:28:12;;;;;;;37.05;26.65;;;7.40;99.90;;;;;;4994528;28;20116;-65
2022/12/01 12:30:51;;;;;;;38.70;27.35;;;7.30;99.90;;;;;;4988824;28;20054;-65
2022/12/01 12:33:54;;;;;;;37.40;26.95;;;7.30;99.90;;;;;;4994185;28;20113;-67
2022/12/01 12:36:26;;;;;;;36.65;26.42;;;7.40;99.90;;;;;;4994160;28;20046;-66
2022/12/01 12:38:59;;;;;;;38.30;27.35;;;7.40;99.90;;;;;;4993909;28;20043;-69
2022/12/01 12:41:44;;;;;;;35.40;25.52;;;7.40;99.90;;;;;;4976856;28;20482;-67
2022/12/01 12:44:36;;;;;;;37.70;27.75;;;7.50;99.90;;;;;;4994179;28;20060;-65
2022/12/01 12:47:15;;;;;;;36.70;26.58;;;7.50;99.90;;;;;;4972488;28;20054;-67
2022/12/01 12:49:46;;;;;;;34.63;26.13;;;7.60;99.90;;;;;;4994048;28;20467;-66
2022/12/01 12:52:15;;;;;;;34.78;25.13;;;7.60;99.90;;;;;;4993408;28;20189;-65
2022/12/01 12:55:04;;;;;;;34.63;26.88;;;7.60;99.90;;;;;;5002024;28;20427;-66
2022/12/01 12:57:38;;;;;;;33.35;24.88;;;7.60;99.90;;;;;;4993712;28;20093;-68
2022/12/01 13:00:18;;;;;;;37.30;26.80;;;7.60;99.90;;;;;;4952512;28;20538;-66
2022/12/01 13:03:09;;;;;;;38.50;26.30;;;7.60;99.90;;;;;;5006582;28;20109;-66
2022/12/01 13:05:45;;;;;;;38.60;26.60;;;7.50;99.90;;;;;;4993758;28;20080;-66
2022/12/01 13:08:20;;;;;;;38.42;27.70;;;7.50;99.90;;;;;;4980118;28;20125;-67